createdAt,value
2017-12-16T00:00:32.318Z,4.3
2017-12-16T00:01:32.045Z,4.35
2017-12-16T00:02:32.381Z,4.41
2017-12-16T00:03:32.339Z,4.38
2017-12-16T00:04:32.353Z,4.31
2017-12-16T00:05:32.369Z,4.32
2017-12-16T00:06:32.371Z,4.3
2017-12-16T00:07:32.427Z,4.3
2017-12-16T00:08:32.405Z,4.28
2017-12-16T00:09:32.405Z,4.28
2017-12-16T00:10:32.134Z,4.31
2017-12-16T00:11:32.422Z,4.26
2017-12-16T00:12:32.155Z,4.31
2017-12-16T00:13:32.448Z,4.32
2017-12-16T00:14:32.172Z,4.37
2017-12-16T00:15:32.458Z,4.35
2017-12-16T00:16:32.477Z,4.34
2017-12-16T00:17:32.482Z,4.2
2017-12-16T00:18:32.547Z,4.23
2017-12-16T00:19:32.228Z,4.22
2017-12-16T00:20:32.236Z,4.24
2017-12-16T00:21:31.966Z,4.28
2017-12-16T00:22:32.260Z,4.24
2017-12-16T00:23:32.547Z,4.22
2017-12-16T00:24:32.551Z,4.16
2017-12-16T00:25:32.285Z,4.19
2017-12-16T00:26:32.578Z,4.16
2017-12-16T00:27:32.584Z,4.23
2017-12-16T00:28:32.597Z,4.24
2017-12-16T00:29:32.321Z,4.23
2017-12-16T00:30:32.619Z,4.26
2017-12-16T00:31:32.622Z,4.26
2017-12-16T00:32:32.631Z,4.22
2017-12-16T00:33:32.638Z,4.12
2017-12-16T00:34:32.652Z,4.1
2017-12-16T00:35:32.382Z,4.22
2017-12-16T00:36:32.417Z,4.1
2017-12-16T00:37:32.680Z,4.22
2017-12-16T00:38:32.736Z,4.2
2017-12-16T00:39:32.451Z,4.23
2017-12-16T00:40:32.709Z,4.22
2017-12-16T00:41:32.711Z,4.22
2017-12-16T00:42:32.451Z,4.19
2017-12-16T00:43:32.734Z,4.22
2017-12-16T00:44:32.748Z,4.16
2017-12-16T00:45:32.754Z,4.14
2017-12-16T00:46:32.768Z,4.14
2017-12-16T00:47:32.502Z,4.14
2017-12-16T00:48:32.841Z,4.14
2017-12-16T00:49:32.796Z,4.13
2017-12-16T00:50:32.820Z,4.13
2017-12-16T00:51:32.552Z,4.14
2017-12-16T00:52:32.829Z,4.08
2017-12-16T00:53:32.988Z,4.05
2017-12-16T00:54:32.573Z,4.08
2017-12-16T00:55:32.851Z,3.99
2017-12-16T00:56:32.862Z,4.06
2017-12-16T00:57:32.890Z,4.02
2017-12-16T00:58:32.657Z,4.01
2017-12-16T00:59:32.891Z,4.01
2017-12-16T01:00:32.627Z,3.99
2017-12-16T01:01:32.636Z,4.01
2017-12-16T01:02:32.649Z,4.02
2017-12-16T01:03:32.988Z,4.05
2017-12-16T01:04:32.666Z,3.96
2017-12-16T01:05:32.959Z,4.05
2017-12-16T01:06:32.971Z,4.01
2017-12-16T01:07:32.694Z,4.02
2017-12-16T01:08:32.753Z,4.05
2017-12-16T01:09:32.712Z,3.99
2017-12-16T01:10:32.728Z,4.05
2017-12-16T01:11:33.010Z,3.96
2017-12-16T01:12:32.744Z,3.98
2017-12-16T01:13:32.759Z,4.01
2017-12-16T01:14:32.761Z,4.04
2017-12-16T01:15:33.057Z,3.96
2017-12-16T01:16:32.782Z,3.99
2017-12-16T01:17:32.788Z,3.96
2017-12-16T01:18:32.825Z,3.96
2017-12-16T01:19:32.811Z,3.95
2017-12-16T01:20:33.110Z,3.92
2017-12-16T01:21:33.108Z,3.88
2017-12-16T01:22:32.839Z,3.94
2017-12-16T01:23:33.178Z,3.92
2017-12-16T01:24:32.864Z,3.94
2017-12-16T01:25:32.869Z,3.86
2017-12-16T01:26:32.878Z,3.91
2017-12-16T01:27:33.175Z,3.84
2017-12-16T01:28:32.945Z,3.87
2017-12-16T01:29:33.179Z,3.84
2017-12-16T01:30:32.915Z,3.92
2017-12-16T01:31:33.199Z,3.88
2017-12-16T01:32:33.209Z,3.92
2017-12-16T01:33:33.224Z,3.88
2017-12-16T01:34:33.232Z,3.84
2017-12-16T01:35:33.236Z,3.86
2017-12-16T01:36:33.252Z,3.88
2017-12-16T01:37:33.262Z,3.92
2017-12-16T01:38:33.269Z,3.96
2017-12-16T01:39:33.277Z,3.91
2017-12-16T01:40:33.289Z,3.94
2017-12-16T01:41:32.745Z,3.94
2017-12-16T01:42:33.307Z,3.94
2017-12-16T01:43:33.041Z,3.87
2017-12-16T01:44:33.046Z,3.88
2017-12-16T01:45:33.337Z,3.94
2017-12-16T01:46:33.344Z,3.92
2017-12-16T01:47:33.351Z,4.01
2017-12-16T01:48:33.363Z,3.96
2017-12-16T01:49:33.375Z,3.98
2017-12-16T01:50:33.385Z,3.95
2017-12-16T01:51:33.390Z,3.98
2017-12-16T01:52:33.405Z,3.98
2017-12-16T01:53:33.416Z,4.01
2017-12-16T01:54:33.147Z,3.88
2017-12-16T01:55:33.432Z,3.98
2017-12-16T01:56:33.165Z,3.96
2017-12-16T01:57:32.898Z,3.99
2017-12-16T01:58:33.457Z,3.96
2017-12-16T01:59:33.196Z,3.94
2017-12-16T02:00:33.480Z,4.01
2017-12-16T02:01:33.490Z,3.94
2017-12-16T02:02:33.514Z,4.01
2017-12-16T02:03:33.508Z,3.98
2017-12-16T02:04:33.516Z,4.02
2017-12-16T02:05:33.532Z,4.01
2017-12-16T02:06:33.542Z,4.01
2017-12-16T02:07:33.548Z,3.96
2017-12-16T02:08:33.553Z,4.04
2017-12-16T02:09:33.585Z,4.04
2017-12-16T02:10:33.576Z,3.99
2017-12-16T02:11:33.319Z,4.02
2017-12-16T02:12:33.590Z,3.96
2017-12-16T02:13:33.051Z,3.98
2017-12-16T02:14:33.713Z,3.95
2017-12-16T02:15:33.622Z,3.96
2017-12-16T02:16:33.355Z,3.94
2017-12-16T02:17:33.639Z,3.91
2017-12-16T02:18:33.646Z,3.95
2017-12-16T02:19:33.220Z,3.92
2017-12-16T02:20:33.397Z,3.96
2017-12-16T02:21:33.684Z,3.96
2017-12-16T02:22:33.422Z,4.01
2017-12-16T02:23:33.714Z,3.96
2017-12-16T02:24:33.765Z,3.98
2017-12-16T02:25:33.717Z,3.94
2017-12-16T02:26:33.724Z,3.98
2017-12-16T02:27:33.737Z,3.95
2017-12-16T02:28:33.749Z,3.94
2017-12-16T02:29:33.761Z,3.96
2017-12-16T02:30:33.489Z,4.01
2017-12-16T02:31:33.781Z,3.91
2017-12-16T02:32:33.510Z,3.94
2017-12-16T02:33:33.793Z,3.98
2017-12-16T02:34:33.580Z,3.98
2017-12-16T02:35:33.536Z,4.04
2017-12-16T02:36:33.583Z,3.98
2017-12-16T02:37:33.555Z,4.01
2017-12-16T02:38:33.565Z,4.01
2017-12-16T02:39:33.900Z,4.08
2017-12-16T02:40:33.861Z,4.04
2017-12-16T02:41:33.876Z,3.99
2017-12-16T02:42:33.603Z,4.04
2017-12-16T02:43:33.890Z,4.02
2017-12-16T02:44:33.949Z,4.06
2017-12-16T02:45:33.637Z,3.95
2017-12-16T02:46:33.924Z,3.98
2017-12-16T02:47:33.931Z,4.01
2017-12-16T02:48:33.668Z,4.01
2017-12-16T02:49:33.778Z,4.13
2017-12-16T02:50:33.960Z,4.06
2017-12-16T02:51:33.694Z,4.08
2017-12-16T02:52:33.972Z,4.04
2017-12-16T02:53:33.434Z,4.12
2017-12-16T02:54:34.040Z,4.08
2017-12-16T02:55:34.006Z,4.1
2017-12-16T02:56:33.746Z,4.14
2017-12-16T02:57:34.038Z,4.14
2017-12-16T02:58:34.033Z,4.13
2017-12-16T02:59:34.043Z,4.08
2017-12-16T03:00:33.774Z,4.08
2017-12-16T03:01:34.063Z,4.12
2017-12-16T03:02:34.079Z,4.08
2017-12-16T03:03:34.080Z,4.1
2017-12-16T03:04:33.546Z,4.13
2017-12-16T03:05:34.108Z,4.14
2017-12-16T03:06:33.833Z,4.2
2017-12-16T03:07:34.118Z,4.17
2017-12-16T03:08:34.134Z,4.08
2017-12-16T03:09:33.860Z,4.14
2017-12-16T03:10:33.869Z,4.19
2017-12-16T03:11:34.156Z,4.22
2017-12-16T03:12:34.164Z,4.17
2017-12-16T03:13:34.174Z,4.2
2017-12-16T03:14:34.200Z,4.22
2017-12-16T03:15:34.199Z,4.24
2017-12-16T03:16:34.206Z,4.17
2017-12-16T03:17:33.941Z,4.14
2017-12-16T03:18:33.978Z,4.06
2017-12-16T03:19:33.955Z,4.22
2017-12-16T03:20:34.240Z,4.2
2017-12-16T03:21:34.252Z,4.19
2017-12-16T03:22:34.259Z,4.28
2017-12-16T03:23:33.995Z,4.1
2017-12-16T03:24:34.280Z,4.17
2017-12-16T03:25:34.399Z,4.23
2017-12-16T03:26:34.020Z,4.22
2017-12-16T03:27:34.309Z,4.22
2017-12-16T03:28:34.318Z,4.24
2017-12-16T03:29:34.327Z,4.14
2017-12-16T03:30:34.397Z,4.22
2017-12-16T03:31:34.069Z,4.12
2017-12-16T03:32:34.079Z,4.23
2017-12-16T03:33:34.362Z,4.19
2017-12-16T03:34:34.373Z,4.19
2017-12-16T03:35:34.439Z,4.19
2017-12-16T03:36:34.396Z,4.2
2017-12-16T03:37:34.131Z,4.22
2017-12-16T03:38:34.418Z,4.2
2017-12-16T03:39:34.164Z,4.23
2017-12-16T03:40:34.479Z,4.24
2017-12-16T03:41:34.163Z,4.19
2017-12-16T03:42:34.465Z,4.24
2017-12-16T03:43:34.463Z,4.23
2017-12-16T03:44:34.474Z,4.16
2017-12-16T03:45:34.583Z,4.17
2017-12-16T03:46:34.491Z,4.23
2017-12-16T03:47:34.500Z,4.23
2017-12-16T03:48:34.513Z,4.2
2017-12-16T03:49:34.519Z,4.23
2017-12-16T03:50:34.578Z,4.2
2017-12-16T03:51:34.535Z,4.28
2017-12-16T03:52:34.288Z,4.26
2017-12-16T03:53:34.556Z,4.2
2017-12-16T03:54:34.293Z,4.16
2017-12-16T03:55:34.026Z,4.2
2017-12-16T03:56:34.319Z,4.17
2017-12-16T03:57:34.604Z,4.17
2017-12-16T03:58:34.332Z,4.22
2017-12-16T03:59:34.379Z,4.2
2017-12-16T04:00:34.078Z,4.28
2017-12-16T04:01:34.647Z,4.26
2017-12-16T04:02:34.095Z,4.26
2017-12-16T04:03:34.658Z,4.26
2017-12-16T04:04:34.386Z,4.3
2017-12-16T04:05:34.425Z,4.26
2017-12-16T04:06:34.409Z,4.32
2017-12-16T04:07:34.709Z,4.32
2017-12-16T04:08:34.703Z,4.3
2017-12-16T04:09:34.715Z,4.32
2017-12-16T04:10:34.773Z,4.3
2017-12-16T04:11:34.458Z,4.32
2017-12-16T04:12:34.466Z,4.3
2017-12-16T04:13:34.474Z,4.28
2017-12-16T04:14:34.483Z,4.31
2017-12-16T04:15:34.918Z,4.26
2017-12-16T04:16:34.780Z,4.3
2017-12-16T04:17:34.790Z,4.32
2017-12-16T04:18:34.793Z,4.3
2017-12-16T04:19:34.536Z,4.32
2017-12-16T04:20:34.873Z,4.3
2017-12-16T04:21:34.838Z,4.34
2017-12-16T04:22:34.838Z,4.26
2017-12-16T04:23:34.849Z,4.37
2017-12-16T04:24:34.857Z,4.32
2017-12-16T04:25:34.914Z,4.34
2017-12-16T04:26:34.881Z,4.35
2017-12-16T04:27:34.606Z,4.32
2017-12-16T04:28:34.906Z,4.37
2017-12-16T04:29:34.627Z,4.37
2017-12-16T04:30:34.959Z,4.37
2017-12-16T04:31:34.652Z,4.32
2017-12-16T04:32:34.941Z,4.35
2017-12-16T04:33:34.949Z,4.32
2017-12-16T04:34:34.676Z,4.38
2017-12-16T04:35:34.470Z,4.37
2017-12-16T04:36:34.694Z,4.38
2017-12-16T04:37:34.983Z,4.34
2017-12-16T04:38:34.713Z,4.41
2017-12-16T04:39:35.000Z,4.32
2017-12-16T04:40:35.059Z,4.4
2017-12-16T04:41:35.020Z,4.32
2017-12-16T04:42:35.039Z,4.35
2017-12-16T04:43:35.038Z,4.48
2017-12-16T04:44:35.048Z,4.38
2017-12-16T04:45:34.829Z,4.35
2017-12-16T04:46:35.068Z,4.41
2017-12-16T04:47:34.801Z,4.42
2017-12-16T04:48:34.810Z,4.42
2017-12-16T04:49:34.818Z,4.42
2017-12-16T04:50:34.829Z,4.44
2017-12-16T04:51:35.122Z,4.44
2017-12-16T04:52:35.122Z,4.41
2017-12-16T04:53:35.136Z,4.44
2017-12-16T04:54:35.142Z,4.44
2017-12-16T04:55:35.208Z,4.38
2017-12-16T04:56:35.162Z,4.45
2017-12-16T04:57:34.681Z,4.42
2017-12-16T04:58:35.182Z,4.37
2017-12-16T04:59:35.191Z,4.5
2017-12-16T05:00:35.004Z,4.38
2017-12-16T05:01:34.950Z,4.45
2017-12-16T05:02:34.974Z,4.45
2017-12-16T05:03:34.952Z,4.41
2017-12-16T05:04:35.249Z,4.44
2017-12-16T05:05:35.303Z,4.48
2017-12-16T05:06:34.995Z,4.48
2017-12-16T05:07:35.273Z,4.48
2017-12-16T05:08:35.014Z,4.48
2017-12-16T05:09:34.738Z,4.55
2017-12-16T05:10:35.079Z,4.41
2017-12-16T05:11:34.756Z,4.5
2017-12-16T05:12:35.320Z,4.49
2017-12-16T05:13:35.058Z,4.45
2017-12-16T05:14:35.063Z,4.48
2017-12-16T05:15:35.402Z,4.44
2017-12-16T05:16:35.373Z,4.41
2017-12-16T05:17:35.088Z,4.44
2017-12-16T05:18:35.375Z,4.49
2017-12-16T05:19:35.124Z,4.44
2017-12-16T05:20:35.445Z,4.45
2017-12-16T05:21:35.133Z,4.49
2017-12-16T05:22:35.136Z,4.45
2017-12-16T05:23:35.424Z,4.5
2017-12-16T05:24:35.158Z,4.49
2017-12-16T05:25:35.474Z,4.5
2017-12-16T05:26:35.456Z,4.5
2017-12-16T05:27:35.463Z,4.5
2017-12-16T05:28:35.245Z,4.44
2017-12-16T05:29:35.487Z,4.44
2017-12-16T05:30:35.541Z,4.49
2017-12-16T05:31:35.227Z,4.49
2017-12-16T05:32:35.288Z,4.5
2017-12-16T05:33:35.246Z,4.53
2017-12-16T05:34:35.536Z,4.49
2017-12-16T05:35:35.597Z,4.5
2017-12-16T05:36:35.596Z,4.5
2017-12-16T05:37:35.669Z,4.45
2017-12-16T05:38:35.569Z,4.45
2017-12-16T05:39:35.582Z,4.45
2017-12-16T05:40:35.593Z,4.48
2017-12-16T05:41:35.326Z,4.44
2017-12-16T05:42:35.624Z,4.44
2017-12-16T05:43:35.344Z,4.45
2017-12-16T05:44:35.631Z,4.5
2017-12-16T05:45:35.640Z,4.45
2017-12-16T05:46:35.375Z,4.5
2017-12-16T05:47:35.382Z,4.53
2017-12-16T05:48:35.664Z,4.49
2017-12-16T05:49:35.677Z,4.49
2017-12-16T05:50:35.784Z,4.44
2017-12-16T05:51:35.793Z,4.49
2017-12-16T05:52:35.446Z,4.55
2017-12-16T05:53:35.742Z,4.45
2017-12-16T05:54:35.731Z,4.45
2017-12-16T05:55:35.455Z,4.53
2017-12-16T05:56:35.476Z,4.49
2017-12-16T05:57:35.204Z,4.49
2017-12-16T05:58:35.771Z,4.53
2017-12-16T05:59:35.774Z,4.49
2017-12-16T06:00:35.793Z,4.44
2017-12-16T06:01:35.521Z,4.52
2017-12-16T06:02:35.805Z,4.53
2017-12-16T06:03:35.817Z,4.52
2017-12-16T06:04:36.043Z,4.56
2017-12-16T06:05:35.832Z,4.58
2017-12-16T06:06:35.568Z,4.59
2017-12-16T06:07:35.854Z,4.55
2017-12-16T06:08:35.866Z,4.53
2017-12-16T06:09:35.874Z,4.56
2017-12-16T06:10:35.616Z,4.58
2017-12-16T06:11:35.890Z,4.56
2017-12-16T06:12:35.633Z,4.53
2017-12-16T06:13:35.913Z,4.53
2017-12-16T06:14:35.926Z,4.56
2017-12-16T06:15:35.929Z,4.58
2017-12-16T06:16:35.951Z,4.55
2017-12-16T06:17:35.955Z,4.59
2017-12-16T06:18:35.683Z,4.6
2017-12-16T06:19:35.972Z,4.59
2017-12-16T06:20:35.704Z,4.62
2017-12-16T06:21:35.994Z,4.59
2017-12-16T06:22:36.004Z,4.6
2017-12-16T06:23:36.008Z,4.56
2017-12-16T06:24:35.739Z,4.59
2017-12-16T06:25:36.028Z,4.58
2017-12-16T06:26:35.817Z,4.62
2017-12-16T06:27:35.495Z,4.6
2017-12-16T06:28:36.060Z,4.66
2017-12-16T06:29:35.791Z,4.6
2017-12-16T06:30:36.078Z,4.6
2017-12-16T06:31:36.092Z,4.66
2017-12-16T06:32:36.098Z,4.58
2017-12-16T06:33:36.112Z,4.59
2017-12-16T06:34:35.840Z,4.67
2017-12-16T06:35:36.130Z,4.56
2017-12-16T06:36:35.864Z,4.6
2017-12-16T06:37:35.868Z,4.59
2017-12-16T06:38:36.157Z,4.58
2017-12-16T06:39:36.163Z,4.6
2017-12-16T06:40:35.899Z,4.55
2017-12-16T06:41:35.912Z,4.55
2017-12-16T06:42:35.918Z,4.56
2017-12-16T06:43:35.931Z,4.66
2017-12-16T06:44:35.939Z,4.55
2017-12-16T06:45:35.951Z,4.6
2017-12-16T06:46:36.007Z,4.66
2017-12-16T06:47:36.240Z,4.62
2017-12-16T06:48:35.983Z,4.6
2017-12-16T06:49:36.197Z,4.73
2017-12-16T06:50:36.324Z,4.62
2017-12-16T06:51:36.110Z,4.73
2017-12-16T06:52:36.358Z,4.59
2017-12-16T06:53:36.302Z,4.55
2017-12-16T06:54:36.421Z,4.6
2017-12-16T06:55:36.083Z,4.7
2017-12-16T06:56:35.882Z,4.71
2017-12-16T06:57:36.077Z,4.58
2017-12-16T06:58:36.135Z,4.6
2017-12-16T06:59:36.090Z,4.74
2017-12-16T07:00:36.370Z,4.62
2017-12-16T07:01:36.560Z,4.56
2017-12-16T07:02:36.388Z,4.7
2017-12-16T07:03:36.161Z,4.7
2017-12-16T07:04:36.415Z,4.74
2017-12-16T07:05:36.427Z,4.59
2017-12-16T07:06:36.488Z,4.6
2017-12-16T07:07:35.893Z,4.7
2017-12-16T07:08:36.449Z,4.67
2017-12-16T07:09:36.181Z,4.7
2017-12-16T07:10:36.475Z,4.58
2017-12-16T07:11:36.357Z,4.6
2017-12-16T07:12:36.488Z,4.63
2017-12-16T07:13:36.501Z,4.66
2017-12-16T07:14:36.232Z,4.58
2017-12-16T07:15:36.521Z,4.66
2017-12-16T07:16:36.528Z,4.67
2017-12-16T07:17:36.548Z,4.67
2017-12-16T07:18:36.429Z,4.73
2017-12-16T07:19:36.562Z,4.75
2017-12-16T07:20:36.317Z,4.73
2017-12-16T07:21:36.596Z,4.73
2017-12-16T07:22:36.042Z,4.62
2017-12-16T07:23:36.643Z,4.71
2017-12-16T07:24:36.611Z,4.74
2017-12-16T07:25:36.620Z,4.71
2017-12-16T07:26:36.626Z,4.67
2017-12-16T07:27:36.636Z,4.7
2017-12-16T07:28:36.370Z,4.68
2017-12-16T07:29:36.390Z,4.7
2017-12-16T07:30:36.481Z,4.74
2017-12-16T07:31:36.401Z,4.7
2017-12-16T07:32:36.494Z,4.7
2017-12-16T07:33:36.423Z,4.73
2017-12-16T07:34:36.431Z,4.68
2017-12-16T07:35:36.445Z,4.66
2017-12-16T07:36:36.774Z,4.7
2017-12-16T07:37:36.917Z,4.67
2017-12-16T07:38:36.783Z,4.67
2017-12-16T07:39:36.753Z,4.77
2017-12-16T07:40:36.490Z,4.75
2017-12-16T07:41:36.823Z,4.73
2017-12-16T07:42:36.259Z,4.67
2017-12-16T07:43:36.244Z,4.78
2017-12-16T07:44:36.533Z,4.82
2017-12-16T07:45:36.820Z,4.78
2017-12-16T07:46:36.560Z,4.82
2017-12-16T07:47:36.834Z,4.78
2017-12-16T07:48:36.292Z,4.89
2017-12-16T07:49:36.578Z,4.84
2017-12-16T07:50:36.353Z,4.84
2017-12-16T07:51:36.871Z,4.86
2017-12-16T07:52:36.880Z,4.86
2017-12-16T07:53:36.891Z,4.82
2017-12-16T07:54:36.901Z,4.82
2017-12-16T07:55:36.912Z,4.87
2017-12-16T07:56:36.936Z,4.86
2017-12-16T07:57:36.940Z,4.87
2017-12-16T07:58:36.673Z,4.86
2017-12-16T07:59:37.000Z,4.89
2017-12-16T08:00:36.917Z,4.86
2017-12-16T08:01:37.024Z,4.86
2017-12-16T08:02:36.983Z,4.78
2017-12-16T08:03:36.717Z,4.9
2017-12-16T08:04:37.018Z,4.89
2017-12-16T08:05:37.013Z,4.89
2017-12-16T08:06:37.027Z,4.9
2017-12-16T08:07:36.752Z,4.86
2017-12-16T08:08:37.043Z,4.78
2017-12-16T08:09:36.775Z,4.93
2017-12-16T08:10:36.784Z,4.84
2017-12-16T08:11:36.797Z,4.87
2017-12-16T08:12:36.859Z,4.9
2017-12-16T08:13:37.093Z,4.87
2017-12-16T08:14:37.162Z,4.89
2017-12-16T08:15:37.117Z,4.93
2017-12-16T08:16:36.844Z,4.89
2017-12-16T08:17:37.188Z,4.89
2017-12-16T08:18:37.146Z,4.87
2017-12-16T08:19:36.886Z,4.78
2017-12-16T08:20:36.891Z,4.84
2017-12-16T08:21:37.255Z,4.92
2017-12-16T08:22:36.952Z,4.9
2017-12-16T08:23:37.194Z,4.89
2017-12-16T08:24:37.213Z,4.9
2017-12-16T08:25:36.937Z,4.92
2017-12-16T08:26:37.223Z,4.9
2017-12-16T08:27:37.278Z,4.8
2017-12-16T08:28:37.247Z,4.99
2017-12-16T08:29:37.251Z,4.94
2017-12-16T08:30:37.259Z,4.92
2017-12-16T08:31:37.273Z,4.9
2017-12-16T08:32:37.280Z,4.94
2017-12-16T08:33:37.292Z,4.9
2017-12-16T08:34:37.304Z,4.99
2017-12-16T08:35:37.308Z,4.93
2017-12-16T08:36:37.322Z,4.93
2017-12-16T08:37:37.380Z,4.96
2017-12-16T08:38:37.343Z,4.94
2017-12-16T08:39:37.351Z,4.89
2017-12-16T08:40:37.364Z,4.93
2017-12-16T08:41:37.383Z,5.02
2017-12-16T08:42:37.441Z,5.05
2017-12-16T08:43:37.395Z,5.04
2017-12-16T08:44:37.123Z,4.99
2017-12-16T08:45:37.538Z,4.89
2017-12-16T08:46:37.146Z,5
2017-12-16T08:47:37.477Z,5.04
2017-12-16T08:48:37.439Z,5.04
2017-12-16T08:49:37.189Z,5
2017-12-16T08:50:37.460Z,5.04
2017-12-16T08:51:37.194Z,4.94
2017-12-16T08:52:37.211Z,5
2017-12-16T08:53:37.527Z,4.89
2017-12-16T08:54:37.500Z,5.02
2017-12-16T08:55:37.510Z,4.94
2017-12-16T08:56:37.530Z,4.99
2017-12-16T08:57:37.528Z,4.97
2017-12-16T08:58:37.312Z,4.99
2017-12-16T08:59:37.330Z,4.97
2017-12-16T09:00:37.291Z,5.02
2017-12-16T09:01:37.584Z,4.97
2017-12-16T09:02:37.308Z,4.94
2017-12-16T09:03:37.595Z,5
2017-12-16T09:04:37.330Z,5.02
2017-12-16T09:05:37.367Z,5.05
2017-12-16T09:06:37.620Z,5.02
2017-12-16T09:07:37.629Z,5.1
2017-12-16T09:08:37.656Z,5.07
2017-12-16T09:09:37.655Z,5.1
2017-12-16T09:10:37.130Z,5.1
2017-12-16T09:11:37.682Z,5.07
2017-12-16T09:12:37.688Z,5.1
2017-12-16T09:13:37.704Z,5.08
2017-12-16T09:14:37.430Z,5.08
2017-12-16T09:15:37.714Z,5.14
2017-12-16T09:16:37.444Z,5.11
2017-12-16T09:17:37.547Z,5.12
2017-12-16T09:18:37.745Z,5.15
2017-12-16T09:19:37.484Z,5.14
2017-12-16T09:20:37.490Z,5.12
2017-12-16T09:21:37.772Z,5.15
2017-12-16T09:22:37.511Z,5.18
2017-12-16T09:23:37.514Z,5.18
2017-12-16T09:24:37.532Z,5.25
2017-12-16T09:25:37.817Z,5.17
2017-12-16T09:26:37.832Z,5.23
2017-12-16T09:27:37.285Z,5.21
2017-12-16T09:28:37.862Z,5.25
2017-12-16T09:29:37.859Z,5.2
2017-12-16T09:30:37.867Z,5.29
2017-12-16T09:31:37.614Z,5.26
2017-12-16T09:32:37.891Z,5.26
2017-12-16T09:33:37.898Z,5.23
2017-12-16T09:34:37.940Z,5.21
2017-12-16T09:35:37.911Z,5.23
2017-12-16T09:36:37.925Z,5.23
2017-12-16T09:37:37.940Z,5.2
2017-12-16T09:38:37.949Z,5.26
2017-12-16T09:39:37.965Z,5.15
2017-12-16T09:40:37.967Z,5.23
2017-12-16T09:41:37.978Z,5.28
2017-12-16T09:42:37.713Z,5.23
2017-12-16T09:43:38.001Z,5.2
2017-12-16T09:44:38.010Z,5.28
2017-12-16T09:45:38.022Z,5.23
2017-12-16T09:46:38.041Z,5.28
2017-12-16T09:47:38.040Z,5.17
2017-12-16T09:48:37.771Z,5.3
2017-12-16T09:49:37.784Z,5.17
2017-12-16T09:50:37.793Z,5.21
2017-12-16T09:51:38.080Z,5.26
2017-12-16T09:52:38.090Z,5.23
2017-12-16T09:53:38.102Z,5.23
2017-12-16T09:54:38.150Z,5.25
2017-12-16T09:55:37.858Z,5.25
2017-12-16T09:56:37.582Z,5.29
2017-12-16T09:57:37.871Z,5.33
2017-12-16T09:58:38.203Z,5.35
2017-12-16T09:59:37.886Z,5.33
2017-12-16T10:00:38.170Z,5.3
2017-12-16T10:01:38.189Z,5.32
2017-12-16T10:02:38.198Z,5.35
2017-12-16T10:03:37.701Z,5.29
2017-12-16T10:04:38.214Z,5.32
2017-12-16T10:05:38.224Z,5.36
2017-12-16T10:06:37.968Z,5.33
2017-12-16T10:07:38.251Z,5.41
2017-12-16T10:08:38.029Z,5.47
2017-12-16T10:09:38.061Z,5.41
2017-12-16T10:10:37.725Z,5.38
2017-12-16T10:11:38.012Z,5.41
2017-12-16T10:12:38.410Z,5.41
2017-12-16T10:13:38.176Z,5.43
2017-12-16T10:14:38.327Z,5.43
2017-12-16T10:15:38.327Z,5.43
2017-12-16T10:16:38.337Z,5.43
2017-12-16T10:17:38.075Z,5.47
2017-12-16T10:18:38.457Z,5.48
2017-12-16T10:19:38.093Z,5.44
2017-12-16T10:20:38.380Z,5.46
2017-12-16T10:21:38.401Z,5.46
2017-12-16T10:22:38.399Z,5.48
2017-12-16T10:23:38.462Z,5.5
2017-12-16T10:24:38.422Z,5.54
2017-12-16T10:25:38.204Z,5.54
2017-12-16T10:26:38.443Z,5.57
2017-12-16T10:27:38.186Z,5.56
2017-12-16T10:28:38.479Z,5.65
2017-12-16T10:29:38.201Z,5.57
2017-12-16T10:30:38.210Z,5.56
2017-12-16T10:31:38.227Z,5.53
2017-12-16T10:32:38.234Z,5.56
2017-12-16T10:33:38.342Z,5.64
2017-12-16T10:34:38.254Z,5.54
2017-12-16T10:35:37.988Z,5.5
2017-12-16T10:36:38.275Z,5.48
2017-12-16T10:37:38.565Z,5.5
2017-12-16T10:38:38.293Z,5.46
2017-12-16T10:39:38.580Z,5.56
2017-12-16T10:40:38.313Z,5.48
2017-12-16T10:41:38.328Z,5.53
2017-12-16T10:42:38.332Z,5.5
2017-12-16T10:43:38.402Z,5.53
2017-12-16T10:44:38.631Z,5.44
2017-12-16T10:45:38.643Z,5.47
2017-12-16T10:46:38.657Z,5.46
2017-12-16T10:47:38.666Z,5.48
2017-12-16T10:48:38.766Z,5.46
2017-12-16T10:49:38.149Z,5.41
2017-12-16T10:50:38.701Z,5.46
2017-12-16T10:51:38.710Z,5.46
2017-12-16T10:52:38.723Z,5.39
2017-12-16T10:53:38.451Z,5.36
2017-12-16T10:54:38.461Z,5.46
2017-12-16T10:55:38.747Z,5.41
2017-12-16T10:56:38.761Z,5.41
2017-12-16T10:57:38.771Z,5.46
2017-12-16T10:58:38.509Z,5.44
2017-12-16T10:59:38.792Z,5.43
2017-12-16T11:00:38.528Z,5.44
2017-12-16T11:01:38.537Z,5.41
2017-12-16T11:02:38.544Z,5.38
2017-12-16T11:03:38.834Z,5.43
2017-12-16T11:04:38.292Z,5.41
2017-12-16T11:05:38.580Z,5.33
2017-12-16T11:06:38.588Z,5.41
2017-12-16T11:07:38.322Z,5.39
2017-12-16T11:08:38.611Z,5.44
2017-12-16T11:09:38.894Z,5.43
2017-12-16T11:10:38.911Z,5.43
2017-12-16T11:11:38.922Z,5.41
2017-12-16T11:12:38.662Z,5.46
2017-12-16T11:13:38.709Z,5.44
2017-12-16T11:14:38.672Z,5.43
2017-12-16T11:15:38.409Z,5.46
2017-12-16T11:16:38.419Z,5.43
2017-12-16T11:17:38.978Z,5.43
2017-12-16T11:18:38.993Z,5.46
2017-12-16T11:19:39.014Z,5.39
2017-12-16T11:20:38.756Z,5.43
2017-12-16T11:21:39.061Z,5.47
2017-12-16T11:22:39.089Z,5.54
2017-12-16T11:23:39.099Z,5.43
2017-12-16T11:24:39.062Z,5.43
2017-12-16T11:25:38.791Z,5.51
2017-12-16T11:26:38.804Z,5.46
2017-12-16T11:27:38.531Z,5.47
2017-12-16T11:28:38.544Z,5.46
2017-12-16T11:29:38.839Z,5.48
2017-12-16T11:30:39.118Z,5.5
2017-12-16T11:31:39.149Z,5.53
2017-12-16T11:32:39.136Z,5.48
2017-12-16T11:33:38.643Z,5.5
2017-12-16T11:34:38.610Z,5.48
2017-12-16T11:35:38.893Z,5.53
2017-12-16T11:36:39.178Z,5.51
2017-12-16T11:37:39.188Z,5.51
2017-12-16T11:38:39.206Z,5.48
2017-12-16T11:39:38.937Z,5.59
2017-12-16T11:40:38.946Z,5.56
2017-12-16T11:41:38.680Z,5.5
2017-12-16T11:42:39.240Z,5.5
2017-12-16T11:43:39.030Z,5.59
2017-12-16T11:44:38.714Z,5.54
2017-12-16T11:45:39.001Z,5.62
2017-12-16T11:46:39.009Z,5.62
2017-12-16T11:47:39.020Z,5.54
2017-12-16T11:48:39.032Z,5.57
2017-12-16T11:49:39.324Z,5.61
2017-12-16T11:50:39.337Z,5.57
2017-12-16T11:51:38.788Z,5.64
2017-12-16T11:52:39.356Z,5.66
2017-12-16T11:53:39.370Z,5.64
2017-12-16T11:54:39.098Z,5.62
2017-12-16T11:55:39.386Z,5.65
2017-12-16T11:56:39.392Z,5.68
2017-12-16T11:57:39.410Z,5.69
2017-12-16T11:58:39.520Z,5.65
2017-12-16T11:59:39.488Z,5.72
2017-12-16T12:00:39.432Z,5.68
2017-12-16T12:01:39.168Z,5.62
2017-12-16T12:02:39.460Z,5.73
2017-12-16T12:03:39.514Z,5.65
2017-12-16T12:04:39.484Z,5.75
2017-12-16T12:05:39.211Z,5.64
2017-12-16T12:06:39.500Z,5.72
2017-12-16T12:07:39.512Z,5.71
2017-12-16T12:08:39.523Z,5.73
2017-12-16T12:09:39.530Z,5.75
2017-12-16T12:10:39.269Z,5.69
2017-12-16T12:11:39.274Z,5.73
2017-12-16T12:12:39.016Z,5.75
2017-12-16T12:13:39.298Z,5.76
2017-12-16T12:14:39.584Z,5.76
2017-12-16T12:15:39.320Z,5.73
2017-12-16T12:16:39.052Z,5.76
2017-12-16T12:17:39.346Z,5.72
2017-12-16T12:18:39.349Z,5.75
2017-12-16T12:19:39.637Z,5.82
2017-12-16T12:20:39.572Z,5.79
2017-12-16T12:21:39.657Z,5.75
2017-12-16T12:22:39.394Z,5.84
2017-12-16T12:23:39.408Z,5.86
2017-12-16T12:24:39.411Z,5.86
2017-12-16T12:25:39.703Z,5.91
2017-12-16T12:26:39.713Z,5.89
2017-12-16T12:27:39.722Z,5.87
2017-12-16T12:28:39.778Z,5.94
2017-12-16T12:29:39.951Z,5.97
2017-12-16T12:30:39.756Z,6.04
2017-12-16T12:31:39.489Z,6.04
2017-12-16T12:32:39.499Z,5.98
2017-12-16T12:33:39.786Z,6.01
2017-12-16T12:34:39.802Z,6.02
2017-12-16T12:35:39.528Z,5.99
2017-12-16T12:36:39.824Z,6.01
2017-12-16T12:37:39.282Z,6.04
2017-12-16T12:38:39.834Z,6.05
2017-12-16T12:39:39.850Z,5.94
2017-12-16T12:40:39.586Z,6.05
2017-12-16T12:41:39.869Z,5.99
2017-12-16T12:42:39.889Z,6.01
2017-12-16T12:43:39.618Z,5.98
2017-12-16T12:44:39.628Z,6.05
2017-12-16T12:45:39.363Z,5.94
2017-12-16T12:46:39.650Z,5.98
2017-12-16T12:47:39.939Z,6.05
2017-12-16T12:48:39.672Z,5.98
2017-12-16T12:49:39.681Z,6.01
2017-12-16T12:50:39.694Z,6.05
2017-12-16T12:51:39.702Z,6.04
2017-12-16T12:52:39.714Z,5.93
2017-12-16T12:53:40.006Z,5.98
2017-12-16T12:54:39.740Z,5.98
2017-12-16T12:55:40.019Z,5.97
2017-12-16T12:56:40.036Z,5.98
2017-12-16T12:57:39.498Z,5.87
2017-12-16T12:58:39.780Z,5.98
2017-12-16T12:59:39.797Z,5.99
2017-12-16T13:00:39.877Z,5.97
2017-12-16T13:01:39.815Z,5.99
2017-12-16T13:02:39.823Z,5.99
2017-12-16T13:03:39.833Z,6.01
2017-12-16T13:04:40.126Z,6.05
2017-12-16T13:05:40.136Z,5.94
2017-12-16T13:06:40.147Z,5.98
2017-12-16T13:07:40.156Z,6.02
2017-12-16T13:08:40.166Z,5.97
2017-12-16T13:09:40.224Z,6.02
2017-12-16T13:10:39.633Z,5.98
2017-12-16T13:11:40.206Z,6.07
2017-12-16T13:12:40.223Z,6.02
2017-12-16T13:13:39.948Z,5.93
2017-12-16T13:14:40.009Z,6.08
2017-12-16T13:15:39.692Z,6.02
2017-12-16T13:16:40.250Z,5.98
2017-12-16T13:17:40.264Z,5.98
2017-12-16T13:18:40.273Z,5.97
2017-12-16T13:19:40.393Z,5.98
2017-12-16T13:20:40.299Z,6.04
2017-12-16T13:21:40.038Z,6.01